Alexanders Store, Texas
Current Conditions -  °F | °C
As of 10:15 AM on Tuesday 21 Oct 2014 (Local Time) from KOCH Reporting Station
Clear Clear  
Wind Chill: 21°   Ceiling: Unl
Heat Index: 21°   Visibility: 10mi
Dew Point: 13°   Wind: 6mph
Humidity: 60%   Direction: 110°ESE
Pressure: 30.13"   Gusts: NA
Location:  31.7022°N, 93.9592°W
Report Text: KOCH 211515Z AUTO 11005KT 10SM CLR 21/13 A3013 RMK AO1
Loading
Personal Weather Stations






























Interactive Weather Map
Tropical Storm Tracking
New forecast layout! Learn more

10-Day Weather Forecast

Advertisements
Track Severe Weather on mobile